sensor_id;sensor_type;location;lat;lon;timestamp;pressure;altitude;pressure_sealevel;temperature;humidity
59073;BME280;44859;51.934;15.554;2023-07-29T00:00:32;99091.98;;;17.28;97.54
59073;BME280;44859;51.934;15.554;2023-07-29T00:03:22;99088.75;;;17.26;97.47
59073;BME280;44859;51.934;15.554;2023-07-29T00:05:58;99092.61;;;17.22;97.73
59073;BME280;44859;51.934;15.554;2023-07-29T00:08:25;99093.98;;;17.17;97.78
59073;BME280;44859;51.934;15.554;2023-07-29T00:10:53;99087.83;;;17.08;97.96
59073;BME280;44859;51.934;15.554;2023-07-29T00:13:28;99085.56;;;16.99;98.07
59073;BME280;44859;51.934;15.554;2023-07-29T00:15:55;99082.30;;;16.92;98.53
59073;BME280;44859;51.934;15.554;2023-07-29T00:18:25;99086.52;;;16.86;98.45
59073;BME280;44859;51.934;15.554;2023-07-29T00:20:57;99077.05;;;16.81;98.70
59073;BME280;44859;51.934;15.554;2023-07-29T00:23:35;99079.20;;;16.76;99.00
59073;BME280;44859;51.934;15.554;2023-07-29T00:26:05;99085.23;;;16.72;99.08
59073;BME280;44859;51.934;15.554;2023-07-29T00:28:32;99082.11;;;16.71;99.38
59073;BME280;44859;51.934;15.554;2023-07-29T00:31:00;99079.79;;;16.71;99.68
59073;BME280;44859;51.934;15.554;2023-07-29T00:33:27;99082.23;;;16.72;99.89
59073;BME280;44859;51.934;15.554;2023-07-29T00:35:54;99083.61;;;16.74;99.97
59073;BME280;44859;51.934;15.554;2023-07-29T00:38:24;99080.63;;;16.76;99.97
59073;BME280;44859;51.934;15.554;2023-07-29T00:40:52;99076.60;;;16.77;100.00
59073;BME280;44859;51.934;15.554;2023-07-29T00:43:20;99074.42;;;16.78;100.00
59073;BME280;44859;51.934;15.554;2023-07-29T00:45:51;99083.20;;;16.81;100.00
59073;BME280;44859;51.934;15.554;2023-07-29T00:48:21;99080.75;;;16.83;100.00
59073;BME280;44859;51.934;15.554;2023-07-29T00:50:51;99078.27;;;16.83;100.00
59073;BME280;44859;51.934;15.554;2023-07-29T00:53:19;99078.41;;;16.83;100.00
59073;BME280;44859;51.934;15.554;2023-07-29T00:55:55;99074.47;;;16.84;100.00
59073;BME280;44859;51.934;15.554;2023-07-29T00:58:23;99073.59;;;16.86;100.00
59073;BME280;44859;51.934;15.554;2023-07-29T01:00:50;99075.25;;;16.85;100.00
59073;BME280;44859;51.934;15.554;2023-07-29T01:03:17;99069.10;;;16.82;100.00
59073;BME280;44859;51.934;15.554;2023-07-29T01:06:01;99064.08;;;16.79;100.00
59073;BME280;44859;51.934;15.554;2023-07-29T01:08:45;99060.77;;;16.74;100.00
59073;BME280;44859;51.934;15.554;2023-07-29T01:14:17;99065.61;;;16.69;100.00
59073;BME280;44859;51.934;15.554;2023-07-29T01:16:52;99064.20;;;16.67;100.00
59073;BME280;44859;51.934;15.554;2023-07-29T01:23:08;99074.91;;;16.68;100.00
59073;BME280;44859;51.934;15.554;2023-07-29T01:25:35;99069.48;;;16.69;100.00
59073;BME280;44859;51.934;15.554;2023-07-29T01:28:02;99065.40;;;16.71;100.00
59073;BME280;44859;51.934;15.554;2023-07-29T01:30:40;99062.55;;;16.74;100.00
59073;BME280;44859;51.934;15.554;2023-07-29T01:33:36;99061.94;;;16.77;100.00
59073;BME280;44859;51.934;15.554;2023-07-29T01:36:14;99059.55;;;16.80;100.00
59073;BME280;44859;51.934;15.554;2023-07-29T01:38:59;99059.14;;;16.83;100.00
59073;BME280;44859;51.934;15.554;2023-07-29T01:41:43;99054.95;;;16.84;100.00
59073;BME280;44859;51.934;15.554;2023-07-29T01:44:29;99062.05;;;16.84;100.00
59073;BME280;44859;51.934;15.554;2023-07-29T01:46:57;99065.85;;;16.81;100.00
59073;BME280;44859;51.934;15.554;2023-07-29T01:49:24;99060.61;;;16.76;100.00
59073;BME280;44859;51.934;15.554;2023-07-29T01:52:15;99055.89;;;16.73;100.00
59073;BME280;44859;51.934;15.554;2023-07-29T01:54:42;99048.48;;;16.70;100.00
59073;BME280;44859;51.934;15.554;2023-07-29T01:57:10;99051.23;;;16.67;100.00
59073;BME280;44859;51.934;15.554;2023-07-29T01:59:38;99054.77;;;16.63;100.00
59073;BME280;44859;51.934;15.554;2023-07-29T02:02:05;99059.27;;;16.56;100.00
59073;BME280;44859;51.934;15.554;2023-07-29T02:04:32;99065.75;;;16.48;100.00
59073;BME280;44859;51.934;15.554;2023-07-29T02:07:00;99070.39;;;16.44;100.00
59073;BME280;44859;51.934;15.554;2023-07-29T02:09:27;99068.45;;;16.40;100.00
59073;BME280;44859;51.934;15.554;2023-07-29T02:12:01;99066.94;;;16.34;100.00
59073;BME280;44859;51.934;15.554;2023-07-29T02:15:09;99060.34;;;16.29;100.00
59073;BME280;44859;51.934;15.554;2023-07-29T02:17:45;99058.52;;;16.25;100.00
59073;BME280;44859;51.934;15.554;2023-07-29T02:20:12;99058.38;;;16.18;100.00
59073;BME280;44859;51.934;15.554;2023-07-29T02:23:00;99058.88;;;16.10;100.00
59073;BME280;44859;51.934;15.554;2023-07-29T02:25:30;99053.39;;;16.04;100.00
59073;BME280;44859;51.934;15.554;2023-07-29T02:27:57;99055.89;;;15.97;100.00
59073;BME280;44859;51.934;15.554;2023-07-29T02:30:24;99060.36;;;15.92;100.00
59073;BME280;44859;51.934;15.554;2023-07-29T02:32:54;99063.39;;;15.88;100.00
59073;BME280;44859;51.934;15.554;2023-07-29T02:35:24;99064.11;;;15.81;100.00
59073;BME280;44859;51.934;15.554;2023-07-29T02:37:54;99068.26;;;15.75;100.00
59073;BME280;44859;51.934;15.554;2023-07-29T02:40:24;99073.52;;;15.71;100.00
59073;BME280;44859;51.934;15.554;2023-07-29T02:42:53;99075.62;;;15.65;100.00
59073;BME280;44859;51.934;15.554;2023-07-29T02:48:03;99077.20;;;15.57;100.00
59073;BME280;44859;51.934;15.554;2023-07-29T02:50:30;99076.45;;;15.53;100.00
59073;BME280;44859;51.934;15.554;2023-07-29T02:52:57;99076.40;;;15.51;100.00
59073;BME280;44859;51.934;15.554;2023-07-29T02:55:24;99076.80;;;15.53;100.00
59073;BME280;44859;51.934;15.554;2023-07-29T02:57:51;99080.56;;;15.54;100.00
59073;BME280;44859;51.934;15.554;2023-07-29T03:00:18;99086.01;;;15.55;100.00
59073;BME280;44859;51.934;15.554;2023-07-29T03:02:47;99090.23;;;15.53;100.00
59073;BME280;44859;51.934;15.554;2023-07-29T03:05:15;99091.41;;;15.50;100.00
59073;BME280;44859;51.934;15.554;2023-07-29T03:07:42;99094.94;;;15.45;100.00
59073;BME280;44859;51.934;15.554;2023-07-29T03:10:28;99089.90;;;15.44;100.00
59073;BME280;44859;51.934;15.554;2023-07-29T03:12:58;99091.41;;;15.44;100.00
59073;BME280;44859;51.934;15.554;2023-07-29T03:15:27;99090.06;;;15.44;100.00
59073;BME280;44859;51.934;15.554;2023-07-29T03:17:54;99087.84;;;15.43;100.00
59073;BME280;44859;51.934;15.554;2023-07-29T03:20:22;99088.52;;;15.39;100.00
59073;BME280;44859;51.934;15.554;2023-07-29T03:23:09;99087.05;;;15.35;100.00
59073;BME280;44859;51.934;15.554;2023-07-29T03:25:36;99084.49;;;15.32;100.00
59073;BME280;44859;51.934;15.554;2023-07-29T03:28:12;99087.38;;;15.29;100.00
59073;BME280;44859;51.934;15.554;2023-07-29T03:30:40;99087.61;;;15.26;100.00
59073;BME280;44859;51.934;15.554;2023-07-29T03:33:10;99080.69;;;15.24;100.00
59073;BME280;44859;51.934;15.554;2023-07-29T03:35:38;99078.45;;;15.21;100.00
59073;BME280;44859;51.934;15.554;2023-07-29T03:38:05;99078.33;;;15.20;100.00
59073;BME280;44859;51.934;15.554;2023-07-29T03:40:35;99076.30;;;15.19;100.00
59073;BME280;44859;51.934;15.554;2023-07-29T03:43:02;99076.89;;;15.19;100.00
59073;BME280;44859;51.934;15.554;2023-07-29T03:45:30;99078.88;;;15.16;100.00
59073;BME280;44859;51.934;15.554;2023-07-29T03:48:06;99076.31;;;15.15;100.00
59073;BME280;44859;51.934;15.554;2023-07-29T03:50:39;99081.29;;;15.12;100.00
59073;BME280;44859;51.934;15.554;2023-07-29T03:53:06;99084.43;;;15.10;100.00
59073;BME280;44859;51.934;15.554;2023-07-29T03:55:36;99081.17;;;15.11;100.00
59073;BME280;44859;51.934;15.554;2023-07-29T03:58:11;99080.45;;;15.11;100.00
59073;BME280;44859;51.934;15.554;2023-07-29T04:00:54;99083.02;;;15.09;100.00
59073;BME280;44859;51.934;15.554;2023-07-29T04:03:21;99087.64;;;15.12;100.00
59073;BME280;44859;51.934;15.554;2023-07-29T04:05:48;99088.95;;;15.20;100.00
59073;BME280;44859;51.934;15.554;2023-07-29T04:08:18;99087.01;;;15.51;100.00
59073;BME280;44859;51.934;15.554;2023-07-29T04:11:03;99085.32;;;15.79;100.00
59073;BME280;44859;51.934;15.554;2023-07-29T04:13:50;99087.18;;;15.97;100.00
59073;BME280;44859;51.934;15.554;2023-07-29T04:16:19;99090.47;;;16.09;100.00
59073;BME280;44859;51.934;15.554;2023-07-29T04:18:49;99093.48;;;16.20;100.00
59073;BME280;44859;51.934;15.554;2023-07-29T04:21:16;99093.20;;;16.26;100.00
59073;BME280;44859;51.934;15.554;2023-07-29T04:23:50;99097.41;;;16.24;100.00
59073;BME280;44859;51.934;15.554;2023-07-29T04:26:18;99107.04;;;16.17;100.00
59073;BME280;44859;51.934;15.554;2023-07-29T04:28:54;99101.67;;;16.09;100.00
59073;BME280;44859;51.934;15.554;2023-07-29T04:31:21;99102.05;;;16.00;100.00
59073;BME280;44859;51.934;15.554;2023-07-29T04:33:54;99098.30;;;15.94;100.00
59073;BME280;44859;51.934;15.554;2023-07-29T04:36:21;99094.05;;;15.94;100.00
59073;BME280;44859;51.934;15.554;2023-07-29T04:38:48;99100.20;;;15.94;100.00
59073;BME280;44859;51.934;15.554;2023-07-29T04:41:16;99104.65;;;15.94;100.00
59073;BME280;44859;51.934;15.554;2023-07-29T04:44:25;99101.55;;;15.95;100.00
59073;BME280;44859;51.934;15.554;2023-07-29T04:46:58;99104.77;;;16.01;100.00
59073;BME280;44859;51.934;15.554;2023-07-29T04:49:31;99108.76;;;16.07;100.00
59073;BME280;44859;51.934;15.554;2023-07-29T04:52:01;99107.43;;;16.14;100.00
59073;BME280;44859;51.934;15.554;2023-07-29T04:54:31;99116.36;;;16.22;100.00
59073;BME280;44859;51.934;15.554;2023-07-29T04:56:59;99114.48;;;16.30;100.00
59073;BME280;44859;51.934;15.554;2023-07-29T04:59:29;99109.23;;;16.37;100.00
59073;BME280;44859;51.934;15.554;2023-07-29T05:01:56;99100.29;;;16.41;100.00
59073;BME280;44859;51.934;15.554;2023-07-29T05:04:23;99097.36;;;16.44;100.00
59073;BME280;44859;51.934;15.554;2023-07-29T05:06:53;99095.17;;;16.48;100.00
59073;BME280;44859;51.934;15.554;2023-07-29T05:09:23;99095.89;;;16.55;100.00
59073;BME280;44859;51.934;15.554;2023-07-29T05:11:52;99096.98;;;16.61;100.00
59073;BME280;44859;51.934;15.554;2023-07-29T05:14:20;99092.48;;;16.70;100.00
59073;BME280;44859;51.934;15.554;2023-07-29T05:16:47;99092.69;;;16.82;100.00
59073;BME280;44859;51.934;15.554;2023-07-29T05:19:14;99094.83;;;16.95;100.00
59073;BME280;44859;51.934;15.554;2023-07-29T05:21:41;99093.77;;;17.17;100.00
59073;BME280;44859;51.934;15.554;2023-07-29T05:24:13;99090.55;;;17.38;100.00
59073;BME280;44859;51.934;15.554;2023-07-29T05:26:43;99091.08;;;17.44;100.00
59073;BME280;44859;51.934;15.554;2023-07-29T05:29:13;99089.86;;;17.41;100.00
59073;BME280;44859;51.934;15.554;2023-07-29T05:31:44;99087.75;;;17.49;100.00
59073;BME280;44859;51.934;15.554;2023-07-29T05:34:35;99090.50;;;17.73;100.00
59073;BME280;44859;51.934;15.554;2023-07-29T05:37:20;99088.71;;;18.07;100.00
59073;BME280;44859;51.934;15.554;2023-07-29T05:39:49;99094.46;;;18.31;100.00
59073;BME280;44859;51.934;15.554;2023-07-29T05:42:16;99093.39;;;18.53;100.00
59073;BME280;44859;51.934;15.554;2023-07-29T05:44:43;99097.25;;;18.64;100.00
59073;BME280;44859;51.934;15.554;2023-07-29T05:47:13;99097.25;;;18.74;100.00
59073;BME280;44859;51.934;15.554;2023-07-29T05:49:44;99097.13;;;18.91;100.00
59073;BME280;44859;51.934;15.554;2023-07-29T05:52:10;99095.80;;;19.24;99.71
59073;BME280;44859;51.934;15.554;2023-07-29T05:54:38;99095.71;;;19.30;98.37
59073;BME280;44859;51.934;15.554;2023-07-29T05:57:06;99097.09;;;19.34;97.72
59073;BME280;44859;51.934;15.554;2023-07-29T05:59:43;99101.15;;;19.38;96.90
59073;BME280;44859;51.934;15.554;2023-07-29T06:02:30;99102.08;;;19.38;96.29
59073;BME280;44859;51.934;15.554;2023-07-29T06:05:34;99098.45;;;19.55;95.71
59073;BME280;44859;51.934;15.554;2023-07-29T06:08:47;99096.66;;;19.48;95.25
59073;BME280;44859;51.934;15.554;2023-07-29T06:11:14;99094.86;;;19.63;95.24
59073;BME280;44859;51.934;15.554;2023-07-29T06:13:45;99098.75;;;20.00;94.62
59073;BME280;44859;51.934;15.554;2023-07-29T06:16:12;99099.81;;;20.18;94.12
59073;BME280;44859;51.934;15.554;2023-07-29T06:18:40;99103.93;;;20.30;92.94
59073;BME280;44859;51.934;15.554;2023-07-29T06:21:07;99102.02;;;20.16;92.12
59073;BME280;44859;51.934;15.554;2023-07-29T06:23:34;99099.90;;;19.85;91.66
59073;BME280;44859;51.934;15.554;2023-07-29T06:26:02;99099.58;;;19.92;92.16
59073;BME280;44859;51.934;15.554;2023-07-29T06:28:29;99100.64;;;20.28;92.30
59073;BME280;44859;51.934;15.554;2023-07-29T06:30:59;99097.90;;;20.62;91.35
59073;BME280;44859;51.934;15.554;2023-07-29T06:33:26;99096.32;;;20.76;90.12
59073;BME280;44859;51.934;15.554;2023-07-29T06:36:02;99092.02;;;20.78;89.38
59073;BME280;44859;51.934;15.554;2023-07-29T06:38:38;99089.95;;;20.97;89.25
59073;BME280;44859;51.934;15.554;2023-07-29T06:41:06;99086.09;;;21.18;88.50
59073;BME280;44859;51.934;15.554;2023-07-29T06:43:33;99082.08;;;21.23;87.34
59073;BME280;44859;51.934;15.554;2023-07-29T06:46:00;99080.12;;;21.28;86.81
59073;BME280;44859;51.934;15.554;2023-07-29T06:48:28;99076.14;;;21.37;86.93
59073;BME280;44859;51.934;15.554;2023-07-29T06:50:54;99074.84;;;21.61;86.18
59073;BME280;44859;51.934;15.554;2023-07-29T06:53:22;99074.13;;;21.68;85.25
59073;BME280;44859;51.934;15.554;2023-07-29T06:55:49;99075.98;;;21.77;84.89
59073;BME280;44859;51.934;15.554;2023-07-29T06:58:16;99078.16;;;21.87;83.78
59073;BME280;44859;51.934;15.554;2023-07-29T07:00:43;99078.55;;;21.85;83.82
59073;BME280;44859;51.934;15.554;2023-07-29T07:03:13;99080.91;;;21.97;83.07
59073;BME280;44859;51.934;15.554;2023-07-29T07:05:44;99083.89;;;21.89;82.66
59073;BME280;44859;51.934;15.554;2023-07-29T07:08:15;99081.64;;;21.88;82.77
59073;BME280;44859;51.934;15.554;2023-07-29T07:10:42;99081.98;;;21.88;82.62
59073;BME280;44859;51.934;15.554;2023-07-29T07:13:09;99080.54;;;21.92;82.08
59073;BME280;44859;51.934;15.554;2023-07-29T07:15:45;99073.45;;;22.01;81.87
59073;BME280;44859;51.934;15.554;2023-07-29T07:18:15;99071.03;;;22.02;81.81
59073;BME280;44859;51.934;15.554;2023-07-29T07:20:42;99068.66;;;22.20;81.77
59073;BME280;44859;51.934;15.554;2023-07-29T07:23:09;99061.71;;;22.17;81.54
59073;BME280;44859;51.934;15.554;2023-07-29T07:25:42;99060.59;;;22.29;81.24
59073;BME280;44859;51.934;15.554;2023-07-29T07:28:09;99054.95;;;22.30;80.73
59073;BME280;44859;51.934;15.554;2023-07-29T07:30:41;99054.55;;;22.30;80.82
59073;BME280;44859;51.934;15.554;2023-07-29T07:33:08;99051.48;;;22.46;80.14
59073;BME280;44859;51.934;15.554;2023-07-29T07:35:35;99052.45;;;22.37;78.86
59073;BME280;44859;51.934;15.554;2023-07-29T07:38:03;99046.34;;;22.25;78.44
59073;BME280;44859;51.934;15.554;2023-07-29T07:40:31;99038.42;;;22.08;78.94
59073;BME280;44859;51.934;15.554;2023-07-29T07:42:58;99039.50;;;22.09;78.35
59073;BME280;44859;51.934;15.554;2023-07-29T07:45:25;99040.40;;;21.99;78.45
59073;BME280;44859;51.934;15.554;2023-07-29T07:47:53;99040.77;;;21.88;78.89
59073;BME280;44859;51.934;15.554;2023-07-29T07:50:21;99040.56;;;21.76;79.09
59073;BME280;44859;51.934;15.554;2023-07-29T07:52:48;99044.65;;;21.76;79.75
59073;BME280;44859;51.934;15.554;2023-07-29T07:55:15;99042.05;;;22.04;79.60
59073;BME280;44859;51.934;15.554;2023-07-29T07:57:42;99045.63;;;22.31;78.68
59073;BME280;44859;51.934;15.554;2023-07-29T08:00:10;99042.90;;;22.41;78.54
59073;BME280;44859;51.934;15.554;2023-07-29T08:02:57;99043.75;;;22.57;78.11
59073;BME280;44859;51.934;15.554;2023-07-29T08:05:24;99038.77;;;22.69;78.07
59073;BME280;44859;51.934;15.554;2023-07-29T08:07:51;99044.08;;;22.77;77.06
59073;BME280;44859;51.934;15.554;2023-07-29T08:10:21;99048.55;;;22.72;77.65
59073;BME280;44859;51.934;15.554;2023-07-29T08:12:48;99050.56;;;22.83;77.36
59073;BME280;44859;51.934;15.554;2023-07-29T08:15:38;99057.38;;;22.80;76.35
59073;BME280;44859;51.934;15.554;2023-07-29T08:18:05;99058.31;;;22.45;76.88
59073;BME280;44859;51.934;15.554;2023-07-29T08:20:33;99056.25;;;22.75;77.74
59073;BME280;44859;51.934;15.554;2023-07-29T08:23:00;99047.32;;;22.93;76.89
59073;BME280;44859;51.934;15.554;2023-07-29T08:25:31;99045.08;;;23.08;76.79
59073;BME280;44859;51.934;15.554;2023-07-29T08:27:58;99044.45;;;23.31;76.75
59073;BME280;44859;51.934;15.554;2023-07-29T08:30:25;99044.73;;;23.65;75.97
59073;BME280;44859;51.934;15.554;2023-07-29T08:32:52;99052.55;;;23.62;75.08
59073;BME280;44859;51.934;15.554;2023-07-29T08:35:20;99048.33;;;23.35;74.76
59073;BME280;44859;51.934;15.554;2023-07-29T08:37:52;99052.60;;;23.32;74.56
59073;BME280;44859;51.934;15.554;2023-07-29T08:40:29;99045.44;;;23.48;74.95
59073;BME280;44859;51.934;15.554;2023-07-29T08:42:58;99044.08;;;23.82;74.51
59073;BME280;44859;51.934;15.554;2023-07-29T08:45:35;99041.02;;;23.96;73.47
59073;BME280;44859;51.934;15.554;2023-07-29T08:48:08;99041.04;;;23.83;72.26
59073;BME280;44859;51.934;15.554;2023-07-29T08:50:40;99039.02;;;23.76;72.10
59073;BME280;44859;51.934;15.554;2023-07-29T08:53:10;99036.50;;;23.76;71.58
59073;BME280;44859;51.934;15.554;2023-07-29T08:55:42;99030.08;;;23.57;71.13
59073;BME280;44859;51.934;15.554;2023-07-29T08:58:10;99027.42;;;23.57;71.42
59073;BME280;44859;51.934;15.554;2023-07-29T09:00:38;99026.77;;;23.45;71.32
59073;BME280;44859;51.934;15.554;2023-07-29T09:03:06;99030.67;;;23.45;71.54
59073;BME280;44859;51.934;15.554;2023-07-29T09:05:37;99029.27;;;23.45;71.29
59073;BME280;44859;51.934;15.554;2023-07-29T09:08:05;99026.66;;;23.35;71.27
59073;BME280;44859;51.934;15.554;2023-07-29T09:10:36;99020.11;;;23.20;71.31
59073;BME280;44859;51.934;15.554;2023-07-29T09:13:04;99017.24;;;23.36;70.87
59073;BME280;44859;51.934;15.554;2023-07-29T09:15:38;99016.60;;;23.66;71.47
59073;BME280;44859;51.934;15.554;2023-07-29T09:18:10;99013.22;;;24.28;70.38
59073;BME280;44859;51.934;15.554;2023-07-29T09:20:37;99008.19;;;24.69;67.93
59073;BME280;44859;51.934;15.554;2023-07-29T09:23:08;99010.54;;;24.49;67.70
59073;BME280;44859;51.934;15.554;2023-07-29T09:25:37;99007.57;;;24.18;68.19
59073;BME280;44859;51.934;15.554;2023-07-29T09:28:12;99008.84;;;23.92;67.48
59073;BME280;44859;51.934;15.554;2023-07-29T09:30:45;99005.96;;;23.75;68.12
59073;BME280;44859;51.934;15.554;2023-07-29T09:33:36;99003.45;;;23.73;67.97
59073;BME280;44859;51.934;15.554;2023-07-29T09:36:08;99001.38;;;24.05;67.96
59073;BME280;44859;51.934;15.554;2023-07-29T09:38:37;99000.71;;;24.09;67.55
59073;BME280;44859;51.934;15.554;2023-07-29T09:41:15;98995.55;;;23.90;67.66
59073;BME280;44859;51.934;15.554;2023-07-29T09:43:42;98988.44;;;23.66;67.82
59073;BME280;44859;51.934;15.554;2023-07-29T09:46:09;98983.11;;;23.54;68.43
59073;BME280;44859;51.934;15.554;2023-07-29T09:48:38;98987.81;;;23.61;68.45
59073;BME280;44859;51.934;15.554;2023-07-29T09:51:12;98987.16;;;23.62;68.26
59073;BME280;44859;51.934;15.554;2023-07-29T09:53:45;98988.90;;;23.60;68.57
59073;BME280;44859;51.934;15.554;2023-07-29T09:56:17;98985.54;;;23.68;68.74
59073;BME280;44859;51.934;15.554;2023-07-29T09:58:57;98982.70;;;23.85;68.00
59073;BME280;44859;51.934;15.554;2023-07-29T10:01:24;98977.16;;;24.07;67.52
59073;BME280;44859;51.934;15.554;2023-07-29T10:03:54;98972.87;;;24.23;66.50
59073;BME280;44859;51.934;15.554;2023-07-29T10:06:27;98973.60;;;24.44;65.94
59073;BME280;44859;51.934;15.554;2023-07-29T10:08:57;98966.88;;;24.51;65.42
59073;BME280;44859;51.934;15.554;2023-07-29T10:11:24;98968.45;;;24.86;65.35
59073;BME280;44859;51.934;15.554;2023-07-29T10:13:53;98962.55;;;25.11;64.13
59073;BME280;44859;51.934;15.554;2023-07-29T10:16:36;98971.41;;;24.88;63.83
59073;BME280;44859;51.934;15.554;2023-07-29T10:19:04;98971.77;;;24.67;63.69
59073;BME280;44859;51.934;15.554;2023-07-29T10:21:32;98972.48;;;24.38;63.31
59073;BME280;44859;51.934;15.554;2023-07-29T10:24:01;98977.50;;;24.17;63.99
59073;BME280;44859;51.934;15.554;2023-07-29T10:26:31;98974.22;;;24.01;63.97
59073;BME280;44859;51.934;15.554;2023-07-29T10:29:10;98973.27;;;23.89;64.23
59073;BME280;44859;51.934;15.554;2023-07-29T10:35:17;98969.37;;;23.91;64.56
59073;BME280;44859;51.934;15.554;2023-07-29T10:38:02;98968.70;;;24.02;64.00
59073;BME280;44859;51.934;15.554;2023-07-29T10:40:52;98966.84;;;24.35;63.87
59073;BME280;44859;51.934;15.554;2023-07-29T10:43:34;98957.21;;;24.67;63.56
59073;BME280;44859;51.934;15.554;2023-07-29T10:46:20;98951.60;;;25.10;62.33
59073;BME280;44859;51.934;15.554;2023-07-29T10:48:53;98950.16;;;25.59;61.05
59073;BME280;44859;51.934;15.554;2023-07-29T10:51:35;98948.46;;;25.55;60.34
59073;BME280;44859;51.934;15.554;2023-07-29T10:54:10;98948.97;;;25.32;60.51
59073;BME280;44859;51.934;15.554;2023-07-29T10:56:48;98946.55;;;25.18;60.76
59073;BME280;44859;51.934;15.554;2023-07-29T11:02:15;98936.89;;;25.01;60.57
59073;BME280;44859;51.934;15.554;2023-07-29T11:04:50;98929.44;;;25.16;60.24
59073;BME280;44859;51.934;15.554;2023-07-29T11:07:18;98921.73;;;25.13;60.10
59073;BME280;44859;51.934;15.554;2023-07-29T11:09:56;98917.63;;;24.90;60.54
59073;BME280;44859;51.934;15.554;2023-07-29T11:15:04;98901.99;;;24.83;61.53
59073;BME280;44859;51.934;15.554;2023-07-29T11:17:44;98900.42;;;25.19;60.97
59073;BME280;44859;51.934;15.554;2023-07-29T11:20:12;98890.98;;;25.53;61.41
59073;BME280;44859;51.934;15.554;2023-07-29T11:22:40;98891.02;;;25.93;60.10
59073;BME280;44859;51.934;15.554;2023-07-29T11:25:09;98887.88;;;25.94;58.58
59073;BME280;44859;51.934;15.554;2023-07-29T11:27:37;98887.78;;;26.00;58.64
59073;BME280;44859;51.934;15.554;2023-07-29T11:30:06;98894.55;;;26.09;57.86
59073;BME280;44859;51.934;15.554;2023-07-29T11:32:36;98888.42;;;26.06;57.66
59073;BME280;44859;51.934;15.554;2023-07-29T11:35:09;98881.88;;;26.00;57.28
59073;BME280;44859;51.934;15.554;2023-07-29T11:37:40;98882.02;;;25.73;57.20
59073;BME280;44859;51.934;15.554;2023-07-29T11:40:14;98884.91;;;25.54;57.40
59073;BME280;44859;51.934;15.554;2023-07-29T11:42:46;98889.79;;;25.31;57.44
59073;BME280;44859;51.934;15.554;2023-07-29T11:45:14;98889.45;;;25.02;57.15
59073;BME280;44859;51.934;15.554;2023-07-29T11:47:45;98890.98;;;24.72;57.67
59073;BME280;44859;51.934;15.554;2023-07-29T11:50:15;98886.23;;;24.56;58.31
59073;BME280;44859;51.934;15.554;2023-07-29T11:52:46;98886.52;;;24.48;58.49
59073;BME280;44859;51.934;15.554;2023-07-29T11:55:17;98883.67;;;24.38;58.71
59073;BME280;44859;51.934;15.554;2023-07-29T11:57:51;98886.17;;;24.30;59.52
59073;BME280;44859;51.934;15.554;2023-07-29T12:00:18;98891.19;;;24.16;61.10
59073;BME280;44859;51.934;15.554;2023-07-29T12:02:48;98884.69;;;23.89;63.73
59073;BME280;44859;51.934;15.554;2023-07-29T12:05:18;98882.95;;;23.61;65.38
59073;BME280;44859;51.934;15.554;2023-07-29T12:07:48;98876.11;;;23.56;67.24
59073;BME280;44859;51.934;15.554;2023-07-29T12:10:15;98871.65;;;23.45;68.32
59073;BME280;44859;51.934;15.554;2023-07-29T12:12:49;98868.58;;;23.39;69.17
59073;BME280;44859;51.934;15.554;2023-07-29T12:15:28;98864.69;;;23.41;69.43
59073;BME280;44859;51.934;15.554;2023-07-29T12:18:23;98859.20;;;23.47;68.39
59073;BME280;44859;51.934;15.554;2023-07-29T12:21:02;98850.26;;;23.53;68.09
59073;BME280;44859;51.934;15.554;2023-07-29T12:23:35;98851.76;;;23.69;67.66
59073;BME280;44859;51.934;15.554;2023-07-29T12:26:02;98847.01;;;23.73;67.16
59073;BME280;44859;51.934;15.554;2023-07-29T12:28:32;98843.97;;;23.72;67.04
59073;BME280;44859;51.934;15.554;2023-07-29T12:31:15;98844.73;;;23.71;66.98
59073;BME280;44859;51.934;15.554;2023-07-29T12:33:42;98842.84;;;23.85;66.41
59073;BME280;44859;51.934;15.554;2023-07-29T12:36:09;98840.27;;;24.07;66.20
59073;BME280;44859;51.934;15.554;2023-07-29T12:38:37;98830.98;;;24.32;66.37
59073;BME280;44859;51.934;15.554;2023-07-29T12:41:04;98827.02;;;24.65;65.65
59073;BME280;44859;51.934;15.554;2023-07-29T12:43:31;98822.00;;;24.72;64.06
59073;BME280;44859;51.934;15.554;2023-07-29T12:45:58;98816.91;;;24.58;64.08
59073;BME280;44859;51.934;15.554;2023-07-29T12:48:25;98812.58;;;24.55;64.48
59073;BME280;44859;51.934;15.554;2023-07-29T12:50:52;98804.00;;;24.52;64.48
59073;BME280;44859;51.934;15.554;2023-07-29T12:53:19;98805.70;;;24.51;63.97
59073;BME280;44859;51.934;15.554;2023-07-29T12:55:46;98806.59;;;24.50;62.28
59073;BME280;44859;51.934;15.554;2023-07-29T12:58:13;98809.64;;;24.51;62.05
59073;BME280;44859;51.934;15.554;2023-07-29T13:00:40;98804.75;;;24.64;62.06
59073;BME280;44859;51.934;15.554;2023-07-29T13:03:07;98806.63;;;24.76;61.87
59073;BME280;44859;51.934;15.554;2023-07-29T13:05:35;98806.77;;;24.94;61.63
59073;BME280;44859;51.934;15.554;2023-07-29T13:08:39;98801.48;;;24.99;61.23
59073;BME280;44859;51.934;15.554;2023-07-29T13:11:19;98802.63;;;25.24;60.38
59073;BME280;44859;51.934;15.554;2023-07-29T13:13:46;98798.80;;;25.38;58.36
59073;BME280;44859;51.934;15.554;2023-07-29T13:16:17;98797.17;;;25.43;57.38
59073;BME280;44859;51.934;15.554;2023-07-29T13:18:54;98792.15;;;25.58;56.57
59073;BME280;44859;51.934;15.554;2023-07-29T13:21:30;98789.32;;;25.62;56.55
59073;BME280;44859;51.934;15.554;2023-07-29T13:24:02;98789.04;;;25.69;56.64
59073;BME280;44859;51.934;15.554;2023-07-29T13:26:29;98784.26;;;25.74;55.44